CheckWX is a tool to help pilots better visualize weather data.  It is not intended as a substitute for an official pre-flight weather briefing.

08:12:03 UTC

CYVM TAF
Qikiqtarjuaq Airport
Qikiqtarjuaq, Canada
TAF CYVM 200638Z 2007/2019 VRB03KT P6SM SKC RMK FCST BASED ON AUTO OBS. NXT FCST BY 201300Z

Aug-20@
07:00 UTC

Aug-20 @ 07:00 UTC

Aug-20@
19:00 UTC

Aug-20 @ 19:00 UTC

TAF CYVM 200638Z 2007/2019 VRB03KT P6SM SKC RMK FCST BASED ON AUTO OBS. NXT FCST BY 201300Z
Wind
  • Variable at 3 KTS
Cloud Levels
  • Clear skies